Time;durP1;ratioP1;P1;durP2;ratioP2;P2;SDS_P1;SDS_P2;PMS_P1;PMS_P2;Temp;Humidity;BMP_temperature;BMP_pressure;BME280_temperature;BME280_humidity;BME280_pressure;Samples;Min_cycle;Max_cycle;Signal;HPM_P1;HPM_P2
2022/01/04 00:00:56;;;;;;;;;;;;;;;;;;5042547;28;19929;-73
2022/01/04 00:03:23;;;;;;;;;;;;;;;;;;5041450;28;19932;-73
2022/01/04 00:05:50;;;;;;;;;;;;;;;;;;5043325;28;20023;-73
2022/01/04 00:08:17;;;;;;;;;;;;;;;;;;5042344;28;20031;-72
2022/01/04 00:10:44;;;;;;;;;;;;;;;;;;5044207;28;20351;-72
2022/01/04 00:13:24;;;;;;;;;;;;;;;;;;5042142;28;19925;-72
2022/01/04 00:15:51;;;;;;;;;;;;;;;;;;5041695;28;20122;-72
2022/01/04 00:18:18;;;;;;;;;;;;;;;;;;5041953;28;19925;-71
2022/01/04 00:20:45;;;;;;;;;;;;;;;;;;5040905;28;19925;-72
2022/01/04 00:23:12;;;;;;;;;;;;;;;;;;5041553;28;19931;-72
2022/01/04 00:25:39;;;;;;;;;;;;;;;;;;5042688;28;19940;-72
2022/01/04 00:28:07;;;;;;;;;;;;;;;;;;5043051;28;19960;-73
2022/01/04 00:33:10;;;;;;;;;;;;;;;;;;5226845;22;20265;-71
2022/01/04 00:35:37;;;;;;;;;;;;;;;;;;5060711;28;20059;-73
2022/01/04 00:38:03;;;;;;;;;;;;;;;;;;5063497;28;19931;-71
2022/01/04 00:40:30;;;;;;;;;;;;;;;;;;5070550;28;19929;-73
2022/01/04 00:42:58;;;;;;;;;;;;;;;;;;5060742;28;19925;-72
2022/01/04 00:45:25;;;;;;;;;;;;;;;;;;5064433;28;20023;-72
2022/01/04 00:50:28;;;;;;;;;;;;;;;;;;5150909;22;19971;-72
2022/01/04 00:52:55;;;;;;;;;;;;;;;;;;5029706;28;22039;-72
2022/01/04 00:55:22;;;;;;;;;;;;;;;;;;5031607;28;19925;-72
2022/01/04 00:57:49;;;;;;;;;;;;;;;;;;5028187;28;19936;-72
2022/01/04 01:00:16;;;;;;;;;;;;;;;;;;5027695;28;19929;-72
2022/01/04 01:02:43;;;;;;;;;;;;;;;;;;5031150;28;19925;-72
2022/01/04 01:05:10;;;;;;;;;;;;;;;;;;5031310;28;19929;-72
2022/01/04 01:07:37;;;;;;;;;;;;;;;;;;5031033;28;20383;-73
2022/01/04 01:10:17;;;;;;;;;;;;;;;;;;5028177;28;19925;-72
2022/01/04 01:12:44;;;;;;;;;;;;;;;;;;5031113;28;19925;-72
2022/01/04 01:15:11;;;;;;;;;;;;;;;;;;5028854;28;19925;-71
2022/01/04 01:17:38;;;;;;;;;;;;;;;;;;5020323;28;20321;-72
2022/01/04 01:20:05;;;;;;;;;;;;;;;;;;5025365;28;19925;-71
2022/01/04 01:22:32;;;;;;;;;;;;;;;;;;5028167;28;20334;-71
2022/01/04 01:24:59;;;;;;;;;;;;;;;;;;5030130;28;20382;-71
2022/01/04 01:27:26;;;;;;;;;;;;;;;;;;5029938;28;19925;-72
2022/01/04 01:29:53;;;;;;;;;;;;;;;;;;5026096;28;19943;-71
2022/01/04 01:32:20;;;;;;;;;;;;;;;;;;5026854;28;19933;-72
2022/01/04 01:34:47;;;;;;;;;;;;;;;;;;5026386;28;19933;-72
2022/01/04 01:37:14;;;;;;;;;;;;;;;;;;5023138;28;19932;-71
2022/01/04 01:39:41;;;;;;;;;;;;;;;;;;5022523;28;20519;-71
2022/01/04 01:42:07;;;;;;;;;;;;;;;;;;5025270;28;20294;-72
2022/01/04 01:44:34;;;;;;;;;;;;;;;;;;5028822;28;19932;-70
2022/01/04 01:47:01;;;;;;;;;;;;;;;;;;5029743;28;19925;-72
2022/01/04 01:49:28;;;;;;;;;;;;;;;;;;5026264;28;20366;-71
2022/01/04 01:51:55;;;;;;;;;;;;;;;;;;5030688;28;19929;-71
2022/01/04 01:54:22;;;;;;;;;;;;;;;;;;5030686;28;19932;-72
2022/01/04 01:56:49;;;;;;;;;;;;;;;;;;5031038;28;19925;-72
2022/01/04 01:59:16;;;;;;;;;;;;;;;;;;5026814;28;20007;-72
2022/01/04 02:01:44;;;;;;;;;;;;;;;;;;5027721;28;19925;-72
2022/01/04 02:04:10;;;;;;;;;;;;;;;;;;5029318;28;20408;-72
2022/01/04 02:06:37;;;;;;;;;;;;;;;;;;5029530;28;19925;-71
2022/01/04 02:09:04;;;;;;;;;;;;;;;;;;5025994;28;19926;-72
2022/01/04 02:11:31;;;;;;;;;;;;;;;;;;5029231;28;20378;-72
2022/01/04 02:13:58;;;;;;;;;;;;;;;;;;5026138;28;19931;-72
2022/01/04 02:16:25;;;;;;;;;;;;;;;;;;5030340;28;19931;-72
2022/01/04 02:18:52;;;;;;;;;;;;;;;;;;5027144;28;19929;-72
2022/01/04 02:21:19;;;;;;;;;;;;;;;;;;5026353;28;19932;-73
2022/01/04 02:23:46;;;;;;;;;;;;;;;;;;5029489;28;19971;-71
2022/01/04 02:26:13;;;;;;;;;;;;;;;;;;5024781;28;19932;-71
2022/01/04 02:28:40;;;;;;;;;;;;;;;;;;5028851;28;20012;-71
2022/01/04 02:31:07;;;;;;;;;;;;;;;;;;5028459;28;19925;-72
2022/01/04 02:33:34;;;;;;;;;;;;;;;;;;5028375;28;20379;-71
2022/01/04 02:36:01;;;;;;;;;;;;;;;;;;5028459;28;19925;-72
2022/01/04 02:38:28;;;;;;;;;;;;;;;;;;5027087;28;19931;-72
2022/01/04 02:40:55;;;;;;;;;;;;;;;;;;5026289;28;20325;-72
2022/01/04 02:43:22;;;;;;;;;;;;;;;;;;5022489;28;19925;-72
2022/01/04 02:45:49;;;;;;;;;;;;;;;;;;5025345;28;19959;-72
2022/01/04 02:48:16;;;;;;;;;;;;;;;;;;5026994;28;19925;-72
2022/01/04 02:50:43;;;;;;;;;;;;;;;;;;5024995;28;19925;-72
2022/01/04 02:53:10;;;;;;;;;;;;;;;;;;5023143;28;20393;-72
2022/01/04 02:55:37;;;;;;;;;;;;;;;;;;5021871;28;19931;-72
2022/01/04 02:58:04;;;;;;;;;;;;;;;;;;5026068;28;19930;-72
2022/01/04 03:00:31;;;;;;;;;;;;;;;;;;5021125;28;19932;-72
2022/01/04 03:02:58;;;;;;;;;;;;;;;;;;5025779;28;20297;-72
2022/01/04 03:05:25;;;;;;;;;;;;;;;;;;5028540;28;19940;-73
2022/01/04 03:07:52;;;;;;;;;;;;;;;;;;5026411;28;19925;-73
2022/01/04 03:10:19;;;;;;;;;;;;;;;;;;5027589;28;20267;-72
2022/01/04 03:12:46;;;;;;;;;;;;;;;;;;5025881;28;19925;-72
2022/01/04 03:15:13;;;;;;;;;;;;;;;;;;5026157;28;19925;-72
2022/01/04 03:17:40;;;;;;;;;;;;;;;;;;5025338;28;19929;-72
2022/01/04 03:20:08;;;;;;;;;;;;;;;;;;5027158;28;19925;-73
2022/01/04 03:22:35;;;;;;;;;;;;;;;;;;5025324;28;20005;-72
2022/01/04 03:25:02;;;;;;;;;;;;;;;;;;5031201;28;19936;-72
2022/01/04 03:27:29;;;;;;;;;;;;;;;;;;5031065;28;20404;-73
2022/01/04 03:29:56;;;;;;;;;;;;;;;;;;5029916;28;19924;-73
2022/01/04 03:32:23;;;;;;;;;;;;;;;;;;5029163;28;20289;-72
2022/01/04 03:34:50;;;;;;;;;;;;;;;;;;5031528;28;19935;-73
2022/01/04 03:37:17;;;;;;;;;;;;;;;;;;5029277;28;20349;-72
2022/01/04 03:39:44;;;;;;;;;;;;;;;;;;5030745;28;19926;-72
2022/01/04 03:42:11;;;;;;;;;;;;;;;;;;5029949;28;20008;-71
2022/01/04 03:44:38;;;;;;;;;;;;;;;;;;5031718;28;19940;-71
2022/01/04 03:47:05;;;;;;;;;;;;;;;;;;5028551;28;19925;-71
2022/01/04 03:49:32;;;;;;;;;;;;;;;;;;5019500;28;19926;-71
2022/01/04 03:51:59;;;;;;;;;;;;;;;;;;5022874;28;19947;-71
2022/01/04 03:54:26;;;;;;;;;;;;;;;;;;5024415;28;20419;-72
2022/01/04 03:56:53;;;;;;;;;;;;;;;;;;5025347;28;20268;-72
2022/01/04 03:59:20;;;;;;;;;;;;;;;;;;5024737;28;20421;-72
2022/01/04 04:01:47;;;;;;;;;;;;;;;;;;5027773;28;20087;-72
2022/01/04 04:04:14;;;;;;;;;;;;;;;;;;5027797;28;19979;-73
2022/01/04 04:06:42;;;;;;;;;;;;;;;;;;5027701;28;20349;-72
2022/01/04 04:09:09;;;;;;;;;;;;;;;;;;5021687;28;19925;-72
2022/01/04 04:11:36;;;;;;;;;;;;;;;;;;5023789;28;19926;-71
2022/01/04 04:14:03;;;;;;;;;;;;;;;;;;5022234;28;19931;-72
2022/01/04 04:16:30;;;;;;;;;;;;;;;;;;5027327;28;19931;-72
2022/01/04 04:18:57;;;;;;;;;;;;;;;;;;5031663;28;19979;-72
2022/01/04 04:21:24;;;;;;;;;;;;;;;;;;5031735;28;19933;-72
2022/01/04 04:23:51;;;;;;;;;;;;;;;;;;5031705;28;19929;-72
2022/01/04 04:26:18;;;;;;;;;;;;;;;;;;5030069;28;20020;-72
2022/01/04 04:28:46;;;;;;;;;;;;;;;;;;5024995;28;20405;-72
2022/01/04 04:31:13;;;;;;;;;;;;;;;;;;5026384;28;19925;-72
2022/01/04 04:33:40;;;;;;;;;;;;;;;;;;5029497;28;19929;-72
2022/01/04 04:36:08;;;;;;;;;;;;;;;;;;5030723;28;19947;-72
2022/01/04 04:38:35;;;;;;;;;;;;;;;;;;5030307;28;19932;-72
2022/01/04 04:41:02;;;;;;;;;;;;;;;;;;5031253;28;19925;-72
2022/01/04 04:43:29;;;;;;;;;;;;;;;;;;5026872;28;19932;-72
2022/01/04 04:45:56;;;;;;;;;;;;;;;;;;5029895;28;19979;-72
2022/01/04 04:48:24;;;;;;;;;;;;;;;;;;5030328;28;20309;-71
2022/01/04 04:50:51;;;;;;;;;;;;;;;;;;5028142;28;19933;-71
2022/01/04 04:53:18;;;;;;;;;;;;;;;;;;5030606;28;20386;-72
2022/01/04 04:55:45;;;;;;;;;;;;;;;;;;5031365;28;19932;-72
2022/01/04 04:58:12;;;;;;;;;;;;;;;;;;5028944;28;19925;-71
2022/01/04 05:00:39;;;;;;;;;;;;;;;;;;5026949;28;19933;-73
2022/01/04 05:03:06;;;;;;;;;;;;;;;;;;5029717;28;20297;-72
2022/01/04 05:05:33;;;;;;;;;;;;;;;;;;5031884;28;19932;-72
2022/01/04 05:08:00;;;;;;;;;;;;;;;;;;5030038;28;20309;-71
2022/01/04 05:10:27;;;;;;;;;;;;;;;;;;5030834;28;19956;-72
2022/01/04 05:12:54;;;;;;;;;;;;;;;;;;5029649;28;20412;-72
2022/01/04 05:15:21;;;;;;;;;;;;;;;;;;5029242;28;19929;-73
2022/01/04 05:17:48;;;;;;;;;;;;;;;;;;5023930;28;19929;-72
2022/01/04 05:20:15;;;;;;;;;;;;;;;;;;5020100;28;19926;-72
2022/01/04 05:22:42;;;;;;;;;;;;;;;;;;5025811;28;19968;-72
2022/01/04 05:25:09;;;;;;;;;;;;;;;;;;5029953;28;19925;-72
2022/01/04 05:27:36;;;;;;;;;;;;;;;;;;5024995;28;20314;-72
2022/01/04 05:30:03;;;;;;;;;;;;;;;;;;5027030;28;20016;-72
2022/01/04 05:32:30;;;;;;;;;;;;;;;;;;5024421;28;20364;-72
2022/01/04 05:34:57;;;;;;;;;;;;;;;;;;5030512;28;19933;-71
2022/01/04 05:37:24;;;;;;;;;;;;;;;;;;5026733;28;19968;-72
2022/01/04 05:39:51;;;;;;;;;;;;;;;;;;5022076;28;19930;-72
2022/01/04 05:42:18;;;;;;;;;;;;;;;;;;5024081;28;19947;-72
2022/01/04 05:44:45;;;;;;;;;;;;;;;;;;5023920;28;19925;-72
2022/01/04 05:47:12;;;;;;;;;;;;;;;;;;5028874;28;19925;-71
2022/01/04 05:49:39;;;;;;;;;;;;;;;;;;5029316;28;20351;-72
2022/01/04 05:52:06;;;;;;;;;;;;;;;;;;5027958;28;19933;-72
2022/01/04 05:54:33;;;;;;;;;;;;;;;;;;5030018;28;19925;-72
2022/01/04 05:57:00;;;;;;;;;;;;;;;;;;5030093;28;19947;-71
2022/01/04 05:59:28;;;;;;;;;;;;;;;;;;5026339;28;19925;-73
2022/01/04 06:01:55;;;;;;;;;;;;;;;;;;5020414;28;19925;-73
2022/01/04 06:04:22;;;;;;;;;;;;;;;;;;5029529;28;19925;-72
2022/01/04 06:06:49;;;;;;;;;;;;;;;;;;5031110;28;20023;-72
2022/01/04 06:09:22;;;;;;;;;;;;;;;;;;5027880;28;19925;-71
2022/01/04 06:12:02;;;;;;;;;;;;;;;;;;5023627;28;20609;-71
2022/01/04 06:17:13;;;;;;;;;;;;;;;;;;5026755;28;19979;-71
2022/01/04 06:19:40;;;;;;;;;;;;;;;;;;5028961;28;19925;-72
2022/01/04 06:22:07;;;;;;;;;;;;;;;;;;5027396;28;19929;-72
2022/01/04 06:24:36;;;;;;;;;;;;;;;;;;5029245;28;20595;-71
2022/01/04 06:27:03;;;;;;;;;;;;;;;;;;5020597;28;21470;-70
2022/01/04 06:29:30;;;;;;;;;;;;;;;;;;5028178;28;19925;-70
2022/01/04 06:31:57;;;;;;;;;;;;;;;;;;5029653;28;20052;-70
2022/01/04 06:34:24;;;;;;;;;;;;;;;;;;5027430;28;20390;-70
2022/01/04 06:36:54;;;;;;;;;;;;;;;;;;5029169;28;20397;-70
2022/01/04 06:39:21;;;;;;;;;;;;;;;;;;5023189;28;19929;-70
2022/01/04 06:41:48;;;;;;;;;;;;;;;;;;5021873;28;20446;-70
2022/01/04 06:44:15;;;;;;;;;;;;;;;;;;5026545;28;19925;-71
2022/01/04 06:46:45;;;;;;;;;;;;;;;;;;5028827;28;19925;-71
2022/01/04 06:49:12;;;;;;;;;;;;;;;;;;5024894;28;20622;-71
2022/01/04 06:51:39;;;;;;;;;;;;;;;;;;5025844;28;20348;-71
2022/01/04 06:54:06;;;;;;;;;;;;;;;;;;5027141;28;19925;-71
2022/01/04 06:56:33;;;;;;;;;;;;;;;;;;5031154;28;19925;-71
2022/01/04 06:59:00;;;;;;;;;;;;;;;;;;5030887;28;19925;-71
2022/01/04 07:01:27;;;;;;;;;;;;;;;;;;5028203;28;20307;-71
2022/01/04 07:03:54;;;;;;;;;;;;;;;;;;5030863;28;19925;-71
2022/01/04 07:06:21;;;;;;;;;;;;;;;;;;5033608;28;19939;-71
2022/01/04 07:08:48;;;;;;;;;;;;;;;;;;5031108;28;20434;-71
2022/01/04 07:11:16;;;;;;;;;;;;;;;;;;5032322;28;19925;-71
2022/01/04 07:13:43;;;;;;;;;;;;;;;;;;5028341;28;20032;-71
2022/01/04 07:16:10;;;;;;;;;;;;;;;;;;5032063;28;20306;-71
2022/01/04 07:18:37;;;;;;;;;;;;;;;;;;5029121;28;19925;-71
2022/01/04 07:21:04;;;;;;;;;;;;;;;;;;5031601;28;19933;-71
2022/01/04 07:23:31;;;;;;;;;;;;;;;;;;5031115;28;20347;-71
2022/01/04 07:25:58;;;;;;;;;;;;;;;;;;5030706;28;19925;-71
2022/01/04 07:28:25;;;;;;;;;;;;;;;;;;5027079;28;19932;-71
2022/01/04 07:30:52;;;;;;;;;;;;;;;;;;5024239;28;20357;-71
2022/01/04 07:33:19;;;;;;;;;;;;;;;;;;5032443;28;19932;-71
2022/01/04 07:35:46;;;;;;;;;;;;;;;;;;5031941;28;19932;-71
2022/01/04 07:38:13;;;;;;;;;;;;;;;;;;5033553;28;19925;-71
2022/01/04 07:40:40;;;;;;;;;;;;;;;;;;5030004;28;19925;-71
2022/01/04 07:43:06;;;;;;;;;;;;;;;;;;5027130;28;19925;-71
2022/01/04 07:45:33;;;;;;;;;;;;;;;;;;5030872;28;19951;-71
2022/01/04 07:48:01;;;;;;;;;;;;;;;;;;5032379;28;19925;-77
2022/01/04 07:50:28;;;;;;;;;;;;;;;;;;5025121;28;19925;-77
2022/01/04 07:52:55;;;;;;;;;;;;;;;;;;5031298;28;20019;-77
2022/01/04 07:55:22;;;;;;;;;;;;;;;;;;5031022;28;19933;-77
2022/01/04 07:57:49;;;;;;;;;;;;;;;;;;5028470;28;19925;-77
2022/01/04 08:00:16;;;;;;;;;;;;;;;;;;5022737;28;19933;-78
2022/01/04 08:02:43;;;;;;;;;;;;;;;;;;5025075;28;19925;-78
2022/01/04 08:05:10;;;;;;;;;;;;;;;;;;5021997;28;19933;-78
2022/01/04 08:07:37;;;;;;;;;;;;;;;;;;5021800;28;19936;-76
2022/01/04 08:10:04;;;;;;;;;;;;;;;;;;5023037;28;19935;-77
2022/01/04 08:12:31;;;;;;;;;;;;;;;;;;5024116;28;19948;-77
2022/01/04 08:14:58;;;;;;;;;;;;;;;;;;5025723;28;20352;-77
2022/01/04 08:17:26;;;;;;;;;;;;;;;;;;5031545;28;20279;-77
2022/01/04 08:19:55;;;;;;;;;;;;;;;;;;5023726;28;19987;-78
2022/01/04 08:22:22;;;;;;;;;;;;;;;;;;5028895;28;19947;-78
2022/01/04 08:24:49;;;;;;;;;;;;;;;;;;5029912;28;19925;-77
2022/01/04 08:27:16;;;;;;;;;;;;;;;;;;5027748;28;20027;-79
2022/01/04 08:29:43;;;;;;;;;;;;;;;;;;5028462;28;19936;-77
2022/01/04 08:32:10;;;;;;;;;;;;;;;;;;5028266;28;19925;-76
2022/01/04 08:34:37;;;;;;;;;;;;;;;;;;5032131;28;20352;-76
2022/01/04 08:37:04;;;;;;;;;;;;;;;;;;5032922;28;20301;-76
2022/01/04 08:39:32;;;;;;;;;;;;;;;;;;5028638;28;20397;-77
2022/01/04 08:42:01;;;;;;;;;;;;;;;;;;5032311;28;20409;-76
2022/01/04 08:44:28;;;;;;;;;;;;;;;;;;5022638;28;19933;-76
2022/01/04 08:46:57;;;;;;;;;;;;;;;;;;5026559;28;19929;-77
2022/01/04 08:49:24;;;;;;;;;;;;;;;;;;5026980;28;20410;-77
2022/01/04 08:51:52;;;;;;;;;;;;;;;;;;5026570;28;19987;-77
2022/01/04 08:54:19;;;;;;;;;;;;;;;;;;5022486;28;20271;-77
2022/01/04 08:56:46;;;;;;;;;;;;;;;;;;5030340;28;19925;-77
2022/01/04 08:59:13;;;;;;;;;;;;;;;;;;5029947;28;20021;-77
2022/01/04 09:01:40;;;;;;;;;;;;;;;;;;5031453;28;20333;-77
2022/01/04 09:04:07;;;;;;;;;;;;;;;;;;5026215;28;20386;-77
2022/01/04 09:06:37;;;;;;;;;;;;;;;;;;5028443;28;19929;-78
2022/01/04 09:09:04;;;;;;;;;;;;;;;;;;5027528;28;19925;-77
2022/01/04 09:11:31;;;;;;;;;;;;;;;;;;5027353;28;19936;-77
2022/01/04 09:14:17;;;;;;;;;;;;;;;;;;5027594;28;19961;-76
2022/01/04 09:19:28;;;;;;;;;;;;;;;;;;5026612;28;19920;-76
2022/01/04 09:21:55;;;;;;;;;;;;;;;;;;5030992;28;19939;-76
2022/01/04 09:24:23;;;;;;;;;;;;;;;;;;5029366;28;20387;-75
2022/01/04 09:26:50;;;;;;;;;;;;;;;;;;5032047;28;19955;-75
2022/01/04 09:29:18;;;;;;;;;;;;;;;;;;5026922;28;19935;-75
2022/01/04 09:31:45;;;;;;;;;;;;;;;;;;5027315;28;20473;-76
2022/01/04 09:34:18;;;;;;;;;;;;;;;;;;5027492;28;19925;-76
2022/01/04 09:36:48;;;;;;;;;;;;;;;;;;5019710;28;19929;-78
2022/01/04 09:39:15;;;;;;;;;;;;;;;;;;5024914;28;19959;-78
2022/01/04 09:41:42;;;;;;;;;;;;;;;;;;5029378;28;19951;-77
2022/01/04 09:44:09;;;;;;;;;;;;;;;;;;5023944;28;19924;-77
2022/01/04 09:46:36;;;;;;;;;;;;;;;;;;5028338;28;19972;-76
2022/01/04 09:49:03;;;;;;;;;;;;;;;;;;5023255;28;19925;-77
2022/01/04 09:51:30;;;;;;;;;;;;;;;;;;5026928;28;20345;-77
2022/01/04 09:53:57;;;;;;;;;;;;;;;;;;5025606;28;20279;-77
2022/01/04 09:56:25;;;;;;;;;;;;;;;;;;5026130;28;20325;-77
2022/01/04 09:58:52;;;;;;;;;;;;;;;;;;5023594;28;19929;-77
2022/01/04 10:01:19;;;;;;;;;;;;;;;;;;5023649;28;19925;-79
2022/01/04 10:03:46;;;;;;;;;;;;;;;;;;5018728;28;19925;-77
2022/01/04 10:06:15;;;;;;;;;;;;;;;;;;5018095;28;19929;-77
2022/01/04 10:08:42;;;;;;;;;;;;;;;;;;5019081;28;21080;-77
2022/01/04 10:11:11;;;;;;;;;;;;;;;;;;5019165;28;19925;-77
2022/01/04 10:13:38;;;;;;;;;;;;;;;;;;5023456;28;19932;-76
2022/01/04 10:16:05;;;;;;;;;;;;;;;;;;5024766;28;19929;-76
2022/01/04 10:18:32;;;;;;;;;;;;;;;;;;5027542;28;19983;-77
2022/01/04 10:21:02;;;;;;;;;;;;;;;;;;5026217;28;20309;-76
2022/01/04 10:23:30;;;;;;;;;;;;;;;;;;5020577;28;19979;-75
2022/01/04 10:26:00;;;;;;;;;;;;;;;;;;5024269;28;19930;-75
2022/01/04 10:28:27;;;;;;;;;;;;;;;;;;5026347;28;19953;-75
2022/01/04 10:30:54;;;;;;;;;;;;;;;;;;5025593;28;19932;-77
2022/01/04 10:33:21;;;;;;;;;;;;;;;;;;5025776;28;20036;-77
2022/01/04 10:35:48;;;;;;;;;;;;;;;;;;5025654;28;19925;-77
2022/01/04 10:38:15;;;;;;;;;;;;;;;;;;5025467;28;19925;-76
2022/01/04 10:40:42;;;;;;;;;;;;;;;;;;5023764;28;19937;-76
2022/01/04 10:43:09;;;;;;;;;;;;;;;;;;5022127;28;19931;-75
2022/01/04 10:45:36;;;;;;;;;;;;;;;;;;5026518;28;20371;-75
2022/01/04 10:48:05;;;;;;;;;;;;;;;;;;5019019;28;19932;-75
2022/01/04 10:50:32;;;;;;;;;;;;;;;;;;5017309;28;19956;-72
2022/01/04 10:52:59;;;;;;;;;;;;;;;;;;5024127;28;19925;-73
2022/01/04 10:55:26;;;;;;;;;;;;;;;;;;5023617;28;19987;-74
2022/01/04 10:57:53;;;;;;;;;;;;;;;;;;5024511;28;20012;-74
2022/01/04 11:00:22;;;;;;;;;;;;;;;;;;5023793;28;19932;-73
2022/01/04 11:02:49;;;;;;;;;;;;;;;;;;5024199;28;20018;-74
2022/01/04 11:05:16;;;;;;;;;;;;;;;;;;5024780;28;19933;-74
2022/01/04 11:07:42;;;;;;;;;;;;;;;;;;5028931;28;20271;-73
2022/01/04 11:10:09;;;;;;;;;;;;;;;;;;5020716;28;20301;-73
2022/01/04 11:12:36;;;;;;;;;;;;;;;;;;5023753;28;20276;-73
2022/01/04 11:15:03;;;;;;;;;;;;;;;;;;5021992;28;20314;-73
2022/01/04 11:17:30;;;;;;;;;;;;;;;;;;5027150;28;20401;-73
2022/01/04 11:19:57;;;;;;;;;;;;;;;;;;5026365;28;19929;-75
2022/01/04 11:22:24;;;;;;;;;;;;;;;;;;5025530;28;19925;-76
2022/01/04 11:24:51;;;;;;;;;;;;;;;;;;5025536;28;20393;-75
2022/01/04 11:27:18;;;;;;;;;;;;;;;;;;5023836;28;19929;-76
2022/01/04 11:29:45;;;;;;;;;;;;;;;;;;5024309;28;20434;-76
2022/01/04 11:32:12;;;;;;;;;;;;;;;;;;5021262;28;19940;-75
2022/01/04 11:34:39;;;;;;;;;;;;;;;;;;5025080;28;20456;-75
2022/01/04 11:37:06;;;;;;;;;;;;;;;;;;5020620;28;19932;-73
2022/01/04 11:39:33;;;;;;;;;;;;;;;;;;5022901;28;20016;-74
2022/01/04 11:42:00;;;;;;;;;;;;;;;;;;5026050;28;19948;-74
2022/01/04 11:44:27;;;;;;;;;;;;;;;;;;5020765;28;19934;-75
2022/01/04 11:46:54;;;;;;;;;;;;;;;;;;5012511;28;20655;-76
2022/01/04 11:49:21;;;;;;;;;;;;;;;;;;5022338;28;19976;-76
2022/01/04 11:51:48;;;;;;;;;;;;;;;;;;5026473;28;19934;-76
2022/01/04 11:54:15;;;;;;;;;;;;;;;;;;5026469;28;19948;-76
2022/01/04 11:56:42;;;;;;;;;;;;;;;;;;5024983;28;20418;-77
2022/01/04 11:59:09;;;;;;;;;;;;;;;;;;5025730;28;20413;-77
2022/01/04 12:01:36;;;;;;;;;;;;;;;;;;5033788;28;19978;-77
2022/01/04 12:04:03;;;;;;;;;;;;;;;;;;5026100;28;20008;-77
2022/01/04 12:06:30;;;;;;;;;;;;;;;;;;5028052;28;19925;-77
2022/01/04 12:08:59;;;;;;;;;;;;;;;;;;5028340;28;19948;-77
2022/01/04 12:11:26;;;;;;;;;;;;;;;;;;5027350;28;20008;-74
2022/01/04 12:13:53;;;;;;;;;;;;;;;;;;5027411;28;19925;-77
2022/01/04 12:16:20;;;;;;;;;;;;;;;;;;5027039;28;19929;-78
2022/01/04 12:18:47;;;;;;;;;;;;;;;;;;5026948;28;19933;-76
2022/01/04 12:21:14;;;;;;;;;;;;;;;;;;5028880;28;19931;-76
2022/01/04 12:23:41;;;;;;;;;;;;;;;;;;5027138;28;19971;-77
2022/01/04 12:26:11;;;;;;;;;;;;;;;;;;5025196;28;19999;-72
2022/01/04 12:28:38;;;;;;;;;;;;;;;;;;5025727;28;19933;-76
2022/01/04 12:31:05;;;;;;;;;;;;;;;;;;5024399;28;19929;-76
2022/01/04 12:33:32;;;;;;;;;;;;;;;;;;5027062;28;19972;-77
2022/01/04 12:35:59;;;;;;;;;;;;;;;;;;5025523;28;19925;-78
2022/01/04 12:38:26;;;;;;;;;;;;;;;;;;5023763;28;20003;-77
2022/01/04 12:40:54;;;;;;;;;;;;;;;;;;5024687;28;20085;-75
2022/01/04 12:43:21;;;;;;;;;;;;;;;;;;5027935;28;19940;-76
2022/01/04 12:45:48;;;;;;;;;;;;;;;;;;5024380;28;20020;-77
2022/01/04 12:48:15;;;;;;;;;;;;;;;;;;5025099;28;20020;-76
2022/01/04 12:50:42;;;;;;;;;;;;;;;;;;5028649;28;20390;-76
2022/01/04 12:53:09;;;;;;;;;;;;;;;;;;5024885;28;20041;-76
2022/01/04 12:55:36;;;;;;;;;;;;;;;;;;5026820;28;20011;-76
2022/01/04 12:58:03;;;;;;;;;;;;;;;;;;5025507;28;20059;-76
2022/01/04 13:00:30;;;;;;;;;;;;;;;;;;5025421;28;20127;-75
2022/01/04 13:02:57;;;;;;;;;;;;;;;;;;5055532;22;20017;-77
2022/01/04 13:05:24;;;;;;;;;;;;;;;;;;5038382;28;19932;-77
2022/01/04 13:07:52;;;;;;;;;;;;;;;;;;5045688;28;20285;-78
2022/01/04 13:10:19;;;;;;;;;;;;;;;;;;5039126;28;19955;-76
2022/01/04 13:12:47;;;;;;;;;;;;;;;;;;5021379;28;19925;-75
2022/01/04 13:15:14;;;;;;;;;;;;;;;;;;5022682;28;19925;-74
2022/01/04 13:17:41;;;;;;;;;;;;;;;;;;5026744;28;19929;-76
2022/01/04 13:20:08;;;;;;;;;;;;;;;;;;5026049;28;19933;-75
2022/01/04 13:22:37;;;;;;;;;;;;;;;;;;5022805;28;19925;-74
2022/01/04 13:25:04;;;;;;;;;;;;;;;;;;5017294;28;19976;-74
2022/01/04 13:27:32;;;;;;;;;;;;;;;;;;5026193;28;20403;-76
2022/01/04 13:29:59;;;;;;;;;;;;;;;;;;5023859;28;19929;-76
2022/01/04 13:32:26;;;;;;;;;;;;;;;;;;5026577;28;20015;-76
2022/01/04 13:34:53;;;;;;;;;;;;;;;;;;5026242;28;19939;-78
2022/01/04 13:37:20;;;;;;;;;;;;;;;;;;5029854;28;19933;-75
2022/01/04 13:39:47;;;;;;;;;;;;;;;;;;5026606;28;19925;-79
2022/01/04 13:42:14;;;;;;;;;;;;;;;;;;5027190;28;20012;-78
2022/01/04 13:44:41;;;;;;;;;;;;;;;;;;5030726;28;19933;-77
2022/01/04 13:47:08;;;;;;;;;;;;;;;;;;5030744;28;19925;-76
2022/01/04 13:49:35;;;;;;;;;;;;;;;;;;5024162;28;20286;-73
2022/01/04 13:52:02;;;;;;;;;;;;;;;;;;5026806;28;19926;-74
2022/01/04 13:54:29;;;;;;;;;;;;;;;;;;5026261;28;20370;-73
2022/01/04 13:56:56;;;;;;;;;;;;;;;;;;5027884;28;19925;-73
2022/01/04 13:59:24;;;;;;;;;;;;;;;;;;5020988;28;20408;-73
2022/01/04 14:01:54;;;;;;;;;;;;;;;;;;5022578;28;19925;-74
2022/01/04 14:04:21;;;;;;;;;;;;;;;;;;5031869;28;20016;-74
2022/01/04 14:06:48;;;;;;;;;;;;;;;;;;5030791;28;19928;-75
2022/01/04 14:09:15;;;;;;;;;;;;;;;;;;5037539;28;19929;-74
2022/01/04 14:11:42;;;;;;;;;;;;;;;;;;5028393;28;19932;-74
2022/01/04 14:14:09;;;;;;;;;;;;;;;;;;5029780;28;20362;-76
2022/01/04 14:16:36;;;;;;;;;;;;;;;;;;5031356;28;19925;-75
2022/01/04 14:19:03;;;;;;;;;;;;;;;;;;5026072;28;19929;-75
2022/01/04 14:21:30;;;;;;;;;;;;;;;;;;5022864;28;19926;-76
2022/01/04 14:23:57;;;;;;;;;;;;;;;;;;5031603;28;19933;-75
2022/01/04 14:26:24;;;;;;;;;;;;;;;;;;5029200;28;19932;-76
2022/01/04 14:28:51;;;;;;;;;;;;;;;;;;5035316;28;19931;-76
2022/01/04 14:31:18;;;;;;;;;;;;;;;;;;5033609;28;19925;-76
2022/01/04 14:33:45;;;;;;;;;;;;;;;;;;5029374;28;20283;-76
2022/01/04 14:36:12;;;;;;;;;;;;;;;;;;5026378;28;20016;-75
2022/01/04 14:38:39;;;;;;;;;;;;;;;;;;5022984;28;19925;-76
2022/01/04 14:41:06;;;;;;;;;;;;;;;;;;5029561;28;19933;-76
2022/01/04 14:43:33;;;;;;;;;;;;;;;;;;5031842;28;20027;-75
2022/01/04 14:46:00;;;;;;;;;;;;;;;;;;5032546;28;20012;-75
2022/01/04 14:48:27;;;;;;;;;;;;;;;;;;5030521;28;20433;-75
2022/01/04 14:50:54;;;;;;;;;;;;;;;;;;5025238;28;19929;-74
2022/01/04 14:53:22;;;;;;;;;;;;;;;;;;5031631;28;19925;-75
2022/01/04 14:55:49;;;;;;;;;;;;;;;;;;5024368;28;19932;-74
2022/01/04 14:58:16;;;;;;;;;;;;;;;;;;5025882;28;19943;-73
2022/01/04 15:00:43;;;;;;;;;;;;;;;;;;5031822;28;19931;-74
2022/01/04 15:03:10;;;;;;;;;;;;;;;;;;5026608;28;20345;-75
2022/01/04 15:05:37;;;;;;;;;;;;;;;;;;5025465;28;19926;-75
2022/01/04 15:08:04;;;;;;;;;;;;;;;;;;5024546;28;19929;-75
2022/01/04 15:10:31;;;;;;;;;;;;;;;;;;5023829;28;20032;-75
2022/01/04 15:12:58;;;;;;;;;;;;;;;;;;5027512;28;19936;-75
2022/01/04 15:15:26;;;;;;;;;;;;;;;;;;5022778;28;19925;-76
2022/01/04 15:17:53;;;;;;;;;;;;;;;;;;5028942;28;19941;-76
2022/01/04 15:20:20;;;;;;;;;;;;;;;;;;5032649;28;20379;-76
2022/01/04 15:22:47;;;;;;;;;;;;;;;;;;5034607;28;19947;-76
2022/01/04 15:25:15;;;;;;;;;;;;;;;;;;5032971;28;20320;-76
2022/01/04 15:27:42;;;;;;;;;;;;;;;;;;5030533;28;19925;-76
2022/01/04 15:30:09;;;;;;;;;;;;;;;;;;5030280;28;19925;-75
2022/01/04 15:32:37;;;;;;;;;;;;;;;;;;5024907;28;20028;-73
2022/01/04 15:35:04;;;;;;;;;;;;;;;;;;5029952;28;19969;-73
2022/01/04 15:37:31;;;;;;;;;;;;;;;;;;5031048;28;19933;-72
2022/01/04 15:39:58;;;;;;;;;;;;;;;;;;5030728;28;19929;-76
2022/01/04 15:42:27;;;;;;;;;;;;;;;;;;5030405;28;20425;-74
2022/01/04 15:44:54;;;;;;;;;;;;;;;;;;5028801;28;19929;-76
2022/01/04 15:47:21;;;;;;;;;;;;;;;;;;5028189;28;19933;-74
2022/01/04 15:49:49;;;;;;;;;;;;;;;;;;5026848;28;19929;-76
2022/01/04 15:52:16;;;;;;;;;;;;;;;;;;5031809;28;19926;-77
2022/01/04 15:54:43;;;;;;;;;;;;;;;;;;5028837;28;19929;-75
2022/01/04 15:57:10;;;;;;;;;;;;;;;;;;5030112;28;19932;-75
2022/01/04 15:59:37;;;;;;;;;;;;;;;;;;5029308;28;19972;-74
2022/01/04 16:02:04;;;;;;;;;;;;;;;;;;5028171;28;20023;-74
2022/01/04 16:04:31;;;;;;;;;;;;;;;;;;5030743;28;19940;-76
2022/01/04 16:06:58;;;;;;;;;;;;;;;;;;5030976;28;19931;-76
2022/01/04 16:09:25;;;;;;;;;;;;;;;;;;5027352;28;19925;-76
2022/01/04 16:11:52;;;;;;;;;;;;;;;;;;5027090;28;19952;-77
2022/01/04 16:14:19;;;;;;;;;;;;;;;;;;5032061;28;19931;-74
2022/01/04 16:16:58;;;;;;;;;;;;;;;;;;5025281;28;20286;-72
2022/01/04 16:22:10;;;;;;;;;;;;;;;;;;5028236;28;19919;-74
2022/01/04 16:24:37;;;;;;;;;;;;;;;;;;5031352;28;20374;-74
2022/01/04 16:27:04;;;;;;;;;;;;;;;;;;5024677;28;19933;-74
2022/01/04 16:29:32;;;;;;;;;;;;;;;;;;5025754;28;19925;-74
2022/01/04 16:31:59;;;;;;;;;;;;;;;;;;5035694;28;19925;-74
2022/01/04 16:34:27;;;;;;;;;;;;;;;;;;5032623;28;20012;-74
2022/01/04 16:36:54;;;;;;;;;;;;;;;;;;5023783;28;19952;-74
2022/01/04 16:39:21;;;;;;;;;;;;;;;;;;5027787;28;19932;-75
2022/01/04 16:41:48;;;;;;;;;;;;;;;;;;5026100;28;19929;-75
2022/01/04 16:44:15;;;;;;;;;;;;;;;;;;5031345;28;19928;-75
2022/01/04 16:46:42;;;;;;;;;;;;;;;;;;5030214;28;20398;-75
2022/01/04 16:49:09;;;;;;;;;;;;;;;;;;5028361;28;20020;-75
2022/01/04 16:51:36;;;;;;;;;;;;;;;;;;5028670;28;20381;-74
2022/01/04 16:54:03;;;;;;;;;;;;;;;;;;5031421;28;20016;-75
2022/01/04 16:56:30;;;;;;;;;;;;;;;;;;5028645;28;19952;-75
2022/01/04 16:58:57;;;;;;;;;;;;;;;;;;5029025;28;20301;-74